Main page
METAR-TAF:

METAR-TAF

Airports :

AAC Middle Wallop

Middle Wallop, England

latitude: 51-09N, longitude: 001-34W, elevation: 91 m

Current weather observation

The report was made 32 minutes ago, at 01:50 UTC
Wind 5 kt from the West/Southwest
Temperature 9°C
Humidity 93%
Pressure 1033 hPa
Visibility: 7000 m

METAR: EGVP 210150Z AUTO 24005KT 7000 // FEW007/// OVC011/// 09/08 Q1033

Time: 02:22 (02:22 UTC)

Forecast

The report was made 5 hours and 26 minutes ago, at 20:56 UTC
Forecast valid from 20 at 21 UTC to 21 at 01 UTC
Wind 5 kt from the Southwest
Visibility 10 km or more
Broken clouds at a height of 1200 ft
Temporary
from 20 at 21 UTC to 20 at 23 UTC
Broken clouds at a height of 1700 ft
Probability 30% :
Temporary
from 20 at 23 UTC to 21 at 01 UTC
Scattered clouds at a height of 600 ft

TAF: EGVP 202056Z 2021/2101 22005KT 9999 BKN012 TEMPO 2021/2023 BKN017 PROB30 TEMPO 2023/2101 SCT006

Weather observations and forecasts of more than 4000 airports (METAR and TAF reports).

The available stations are represented by yellow and red dots on the map.

Hover mouse over dot to see the name of the station.

Then click to see weather observations and forecasts.

To change the map : click on the green buttons with a black cross to zoom in, on the green button with a dash to zoom out, or on the green arrows for adjacent maps.


METAR-TAF: